Time;durP1;ratioP1;P1;durP2;ratioP2;P2;SDS_P1;SDS_P2;PMS_P1;PMS_P2;Temp;Humidity;BMP_temperature;BMP_pressure;BME280_temperature;BME280_humidity;BME280_pressure;Samples;Min_cycle;Max_cycle;Signal;HPM_P1;HPM_P2
2023/05/13 00:01:19;;;;;;;9.50;7.43;;;12.30;99.90;;;;;;7364195;19;20086;-85
2023/05/13 00:03:47;;;;;;;11.85;9.82;;;12.20;99.90;;;;;;7368212;19;20129;-87
2023/05/13 00:06:18;;;;;;;11.05;8.38;;;12.20;99.90;;;;;;7361584;19;20015;-87
2023/05/13 00:08:45;;;;;;;12.70;8.57;;;12.20;99.90;;;;;;7364458;19;20019;-86
2023/05/13 00:11:16;;;;;;;;;;;12.20;99.90;;;;;;7374671;19;20024;-87
2023/05/13 00:13:48;;;;;;;10.90;8.48;;;12.10;99.90;;;;;;7368477;19;19922;-87
2023/05/13 00:16:28;;;;;;;11.25;7.68;;;12.20;99.90;;;;;;7370989;19;20026;-87
2023/05/13 00:18:57;;;;;;;9.68;8.68;;;12.10;99.90;;;;;;7371488;19;20026;-87
2023/05/13 00:21:37;;;;;;;14.48;10.05;;;12.10;99.90;;;;;;7371525;19;20018;-85
2023/05/13 00:24:06;;;;;;;11.73;9.10;;;12.00;99.90;;;;;;7371123;19;20031;-87
2023/05/13 00:26:49;;;;;;;11.95;10.13;;;12.00;99.90;;;;;;7370363;19;20018;-87
2023/05/13 00:29:44;;;;;;;13.02;10.05;;;12.00;99.90;;;;;;7371525;19;20091;-86
2023/05/13 00:32:41;;;;;;;11.70;10.07;;;11.90;99.90;;;;;;7368783;19;20064;-87
2023/05/13 00:35:53;;;;;;;12.10;10.20;;;11.90;99.90;;;;;;7363857;19;20039;-85
2023/05/13 00:38:21;;;;;;;15.27;10.10;;;11.90;99.90;;;;;;7364367;19;20748;-87
2023/05/13 00:41:08;;;;;;;10.95;9.85;;;11.90;99.90;;;;;;7367762;19;20019;-87
2023/05/13 00:44:10;;;;;;;12.15;10.50;;;11.80;99.90;;;;;;7371671;19;20472;-86
2023/05/13 00:47:00;;;;;;;11.93;10.20;;;11.80;99.90;;;;;;7368250;19;20014;-87
2023/05/13 00:50:10;;;;;;;12.85;11.05;;;11.80;99.90;;;;;;7370596;19;20664;-87
2023/05/13 00:53:05;;;;;;;16.67;10.82;;;11.70;99.90;;;;;;7368725;19;20041;-87
2023/05/13 01:00:29;;;;;;;14.70;10.00;;;11.70;99.90;;;;;;7372187;19;20109;-85
2023/05/13 01:04:46;;;;;;;15.73;13.00;;;11.60;99.90;;;;;;7366916;19;20974;-86
2023/05/13 01:07:29;;;;;;;13.35;10.00;;;11.60;99.90;;;;;;7361795;19;20938;-86
2023/05/13 01:18:54;;;;;;;14.02;11.15;;;11.50;99.90;;;;;;7355641;19;20056;-87
2023/05/13 01:22:08;;;;;;;13.13;11.55;;;11.50;99.90;;;;;;7362382;19;20018;-88
2023/05/13 01:25:08;;;;;;;13.65;12.25;;;11.50;99.90;;;;;;7367458;19;20026;-87
2023/05/13 01:28:32;;;;;;;11.57;10.30;;;11.50;99.90;;;;;;7366007;19;20406;-86
2023/05/13 01:31:13;;;;;;;14.48;10.88;;;11.40;99.90;;;;;;7370181;19;20591;-87
2023/05/13 01:34:04;;;;;;;12.73;11.35;;;11.40;99.90;;;;;;7366774;19;20026;-87
2023/05/13 01:36:44;;;;;;;12.70;10.55;;;11.40;99.90;;;;;;7358969;19;20825;-86
2023/05/13 01:39:12;;;;;;;12.02;10.75;;;11.40;99.90;;;;;;7363200;19;20687;-87
2023/05/13 01:42:10;;;;;;;;;;;;;;;;;;;;;
2023/05/13 01:44:37;;;;;;;14.48;10.27;;;11.40;99.90;;;;;;7367038;19;20022;-86
2023/05/13 01:47:40;;;;;;;12.93;10.45;;;11.30;99.90;;;;;;7367036;19;20022;-87
2023/05/13 01:50:37;;;;;;;12.02;10.80;;;11.30;99.90;;;;;;7368226;19;20562;-87
2023/05/13 01:54:01;;;;;;;11.88;10.48;;;11.30;99.90;;;;;;7364108;19;20164;-87
2023/05/13 01:59:40;;;;;;;17.60;11.23;;;11.20;99.90;;;;;;7365819;19;20018;-87
2023/05/13 02:02:38;;;;;;;;;;;;;;;;;;;;;
2023/05/13 02:05:30;;;;;;;12.63;11.32;;;11.20;99.90;;;;;;7363173;19;20460;-87
2023/05/13 02:08:29;;;;;;;13.35;11.30;;;11.20;99.90;;;;;;7357908;19;20047;-86
2023/05/13 02:11:02;;;;;;;15.15;11.50;;;11.10;99.90;;;;;;7367792;19;20022;-85
2023/05/13 02:13:42;;;;;;;14.43;12.07;;;11.10;99.90;;;;;;7363136;19;20030;-87
2023/05/13 02:16:21;;;;;;;13.10;11.27;;;11.00;99.90;;;;;;7365487;19;20014;-86
2023/05/13 02:19:01;;;;;;;13.88;11.75;;;11.00;99.90;;;;;;7363594;19;20018;-86
2023/05/13 02:21:30;;;;;;;15.65;10.85;;;11.00;99.90;;;;;;7366616;19;20018;-86
2023/05/13 02:24:05;;;;;;;13.32;11.10;;;10.90;99.90;;;;;;7362796;19;20022;-85
2023/05/13 02:26:52;;;;;;;12.25;11.15;;;10.90;99.90;;;;;;7365912;19;20551;-86
2023/05/13 02:30:28;;;;;;;18.58;11.85;;;10.90;99.90;;;;;;7370493;19;20586;-89
2023/05/13 02:36:40;;;;;;;13.30;11.48;;;10.90;99.90;;;;;;7359546;19;20022;-87
2023/05/13 02:39:13;;;;;;;12.90;11.32;;;10.80;99.90;;;;;;7360100;19;20106;-88
2023/05/13 02:41:40;;;;;;;13.75;12.38;;;10.80;99.90;;;;;;7369842;19;20403;-87
2023/05/13 02:44:41;;;;;;;14.45;12.98;;;10.80;99.90;;;;;;7362663;19;20022;-86
2023/05/13 02:47:19;;;;;;;15.63;13.55;;;10.80;99.90;;;;;;7356850;19;20023;-87
2023/05/13 02:50:11;;;;;;;17.52;12.50;;;10.80;99.90;;;;;;7360916;19;20348;-88
2023/05/13 02:52:49;;;;;;;15.05;12.40;;;10.70;99.90;;;;;;7364326;19;20046;-88
2023/05/13 02:59:01;;;;;;;14.90;13.32;;;10.70;99.90;;;;;;7371312;19;20018;-87
2023/05/13 03:01:40;;;;;;;15.43;13.15;;;10.60;99.90;;;;;;7368628;19;20026;-87
2023/05/13 03:04:19;;;;;;;14.75;12.55;;;10.60;99.90;;;;;;7372742;19;20022;-87
2023/05/13 03:07:33;;;;;;;;;;;10.60;99.90;;;;;;7373132;19;20018;-87
2023/05/13 03:10:33;;;;;;;18.92;13.30;;;10.60;99.90;;;;;;7372306;19;19934;-88
2023/05/13 03:13:06;;;;;;;15.35;13.65;;;10.50;99.90;;;;;;7371553;19;20542;-87
2023/05/13 03:16:12;;;;;;;15.27;13.70;;;10.50;99.90;;;;;;7370658;19;20478;-86
2023/05/13 03:19:12;;;;;;;15.63;13.50;;;10.50;99.90;;;;;;7372412;19;20030;-87
2023/05/13 03:22:30;;;;;;;19.38;14.07;;;10.40;99.90;;;;;;7369924;19;20039;-87
2023/05/13 03:25:26;;;;;;;15.55;13.82;;;10.40;99.90;;;;;;7362035;19;20144;-87
2023/05/13 03:28:31;;;;;;;16.33;14.15;;;10.40;99.90;;;;;;7362370;19;20022;-87
2023/05/13 03:31:15;;;;;;;15.90;14.30;;;10.40;99.90;;;;;;7371858;19;20022;-87
2023/05/13 03:33:58;;;;;;;16.70;14.15;;;10.40;99.90;;;;;;7372420;19;20041;-87
2023/05/13 03:36:28;;;;;;;16.05;14.43;;;10.40;99.90;;;;;;7372489;19;20777;-87
2023/05/13 03:39:17;;;;;;;15.63;14.13;;;10.40;99.90;;;;;;7372341;19;20019;-88
2023/05/13 03:41:54;;;;;;;16.60;15.07;;;10.40;99.90;;;;;;7371526;19;20777;-87
2023/05/13 03:44:44;;;;;;;15.35;13.75;;;10.40;99.90;;;;;;7373687;19;20510;-87
2023/05/13 03:47:58;;;;;;;17.17;15.20;;;10.30;99.90;;;;;;7368943;19;20093;-88
2023/05/13 03:50:45;;;;;;;17.02;15.32;;;10.40;99.90;;;;;;7371652;19;20014;-88
2023/05/13 03:54:02;;;;;;;16.40;14.77;;;10.30;99.90;;;;;;7363389;19;20090;-87
2023/05/13 03:56:56;;;;;;;17.17;15.48;;;10.40;99.90;;;;;;7364145;19;20519;-87
2023/05/13 03:59:34;;;;;;;16.60;15.10;;;10.40;99.90;;;;;;7372567;19;20019;-87
2023/05/13 04:02:07;;;;;;;17.23;15.43;;;10.30;99.90;;;;;;7374773;19;20015;-87
2023/05/13 04:04:42;;;;;;;17.38;15.57;;;10.30;99.90;;;;;;7366809;19;20022;-88
2023/05/13 04:07:14;;;;;;;17.23;15.43;;;10.30;99.90;;;;;;7366151;19;20093;-87
2023/05/13 04:09:58;;;;;;;17.08;15.27;;;10.30;99.90;;;;;;7372868;19;20046;-87
2023/05/13 04:12:36;;;;;;;17.08;15.48;;;10.30;99.90;;;;;;7372469;19;20019;-87
2023/05/13 04:15:06;;;;;;;20.02;17.20;;;10.20;99.90;;;;;;7371927;19;20064;-86
2023/05/13 04:17:43;;;;;;;18.88;16.85;;;10.30;99.90;;;;;;7372220;19;20278;-87
2023/05/13 04:20:29;;;;;;;19.33;17.42;;;10.20;99.90;;;;;;7370579;19;20519;-87
2023/05/13 04:23:25;;;;;;;18.52;16.70;;;10.20;99.90;;;;;;7373548;19;20021;-88
2023/05/13 04:26:20;;;;;;;18.77;16.77;;;10.20;99.90;;;;;;7355889;19;20038;-87
2023/05/13 04:29:03;;;;;;;20.30;18.30;;;10.20;99.90;;;;;;7358512;19;20011;-87
2023/05/13 04:31:52;;;;;;;22.70;18.50;;;10.20;99.90;;;;;;7365248;19;20549;-89
2023/05/13 04:34:29;;;;;;;;;;;10.20;99.90;;;;;;7368730;19;20023;-85
2023/05/13 04:37:11;;;;;;;21.27;19.15;;;10.30;99.90;;;;;;7367867;19;20005;-86
2023/05/13 04:39:38;;;;;;;21.27;19.20;;;10.30;99.90;;;;;;7368841;19;20034;-87
2023/05/13 04:42:19;;;;;;;19.95;18.05;;;10.30;99.90;;;;;;7367786;19;20019;-88
2023/05/13 04:44:51;;;;;;;21.27;19.30;;;10.40;99.90;;;;;;7367585;19;20921;-87
2023/05/13 04:47:18;;;;;;;20.55;18.65;;;10.40;99.90;;;;;;7367729;19;20026;-88
2023/05/13 04:50:09;;;;;;;21.35;19.02;;;10.50;99.90;;;;;;7369568;19;20022;-87
2023/05/13 04:52:46;;;;;;;20.27;18.42;;;10.50;99.90;;;;;;7369664;19;20030;-87
2023/05/13 04:59:22;;;;;;;20.10;18.02;;;10.70;99.90;;;;;;7361556;19;20916;-86
2023/05/13 05:02:35;;;;;;;;;;;;;;;;;;;;;
2023/05/13 05:06:48;;;;;;;20.30;18.30;;;10.90;99.90;;;;;;7363474;19;20590;-88
2023/05/13 05:09:23;;;;;;;19.75;17.70;;;11.30;99.90;;;;;;7369320;19;20041;-87
2023/05/13 05:12:07;;;;;;;18.37;15.97;;;11.50;99.90;;;;;;7370668;19;20022;-87
2023/05/13 05:14:55;;;;;;;17.65;15.90;;;11.80;99.90;;;;;;7362943;19;20922;-87
2023/05/13 05:17:34;;;;;;;;;;;;;;;;;;;;;
2023/05/13 05:20:05;;;;;;;17.52;14.57;;;12.20;99.90;;;;;;7367525;19;20913;-88
2023/05/13 05:22:37;;;;;;;19.50;14.23;;;12.20;99.90;;;;;;7368899;19;20073;-88
2023/05/13 05:25:10;;;;;;;16.38;14.60;;;12.40;99.90;;;;;;7370357;19;20039;-88
2023/05/13 05:27:43;;;;;;;15.35;13.88;;;12.60;99.90;;;;;;7364343;19;20014;-87
2023/05/13 05:31:06;;;;;;;15.13;13.65;;;12.90;99.90;;;;;;7361122;19;20027;-88
2023/05/13 05:33:55;;;;;;;14.07;12.35;;;12.90;99.90;;;;;;7368342;19;20474;-87
2023/05/13 05:37:01;;;;;;;13.93;12.57;;;12.80;99.90;;;;;;7369185;19;20082;-87
2023/05/13 05:40:08;;;;;;;14.45;12.93;;;12.60;99.90;;;;;;7364700;19;20021;-86
2023/05/13 05:42:38;;;;;;;15.20;13.60;;;12.80;99.90;;;;;;7368382;19;20038;-86
2023/05/13 05:45:06;;;;;;;17.15;14.38;;;12.90;99.90;;;;;;7367948;19;20019;-87
2023/05/13 05:47:32;;;;;;;14.95;13.35;;;13.10;99.90;;;;;;7361846;19;20015;-85
2023/05/13 05:50:05;;;;;;;13.85;12.40;;;13.00;99.90;;;;;;7363524;19;20026;-86
2023/05/13 05:52:32;;;;;;;14.30;12.68;;;13.10;99.90;;;;;;7367143;19;20022;-87
2023/05/13 05:55:01;;;;;;;14.10;12.70;;;12.90;99.90;;;;;;7364766;19;20030;-85
2023/05/13 05:57:32;;;;;;;16.15;14.27;;;12.90;99.90;;;;;;7358283;19;20022;-86
2023/05/13 05:59:58;;;;;;;16.65;12.73;;;13.10;99.90;;;;;;7364536;19;20116;-86
2023/05/13 06:02:25;;;;;;;17.98;16.23;;;13.40;99.90;;;;;;7365517;19;20475;-87
2023/05/13 06:04:55;;;;;;;16.08;12.63;;;13.80;99.90;;;;;;7363435;19;20031;-87
2023/05/13 06:07:22;;;;;;;15.45;13.30;;;14.10;99.90;;;;;;7363081;19;20065;-85
2023/05/13 06:09:48;;;;;;;13.80;11.55;;;14.40;99.90;;;;;;7366792;19;20017;-86
2023/05/13 06:12:14;;;;;;;15.65;13.18;;;14.80;99.90;;;;;;7371170;19;20022;-85
2023/05/13 06:14:41;;;;;;;12.50;11.00;;;15.00;99.90;;;;;;7370595;19;20047;-86
2023/05/13 06:17:13;;;;;;;14.02;11.23;;;15.10;99.90;;;;;;7369238;19;20022;-86
2023/05/13 06:22:52;;;;;;;13.48;10.40;;;15.40;99.90;;;;;;7366393;19;20040;-86
2023/05/13 06:25:19;;;;;;;19.83;15.88;;;15.50;99.90;;;;;;7363314;19;20015;-86
2023/05/13 06:27:56;;;;;;;11.98;10.32;;;15.30;99.90;;;;;;7367829;19;20022;-87
2023/05/13 06:30:27;;;;;;;;;;;15.40;99.90;;;;;;7369335;19;20058;-86
2023/05/13 06:32:59;;;;;;;16.73;12.20;;;15.40;99.90;;;;;;7377788;19;19922;-87
2023/05/13 06:35:26;;;;;;;14.95;12.65;;;15.60;99.90;;;;;;7376156;19;20077;-87
2023/05/13 06:38:13;;;;;;;16.58;14.80;;;15.90;99.90;;;;;;7376820;19;20478;-86
2023/05/13 06:40:43;;;;;;;13.45;9.27;;;16.00;99.90;;;;;;7372527;19;20014;-86
2023/05/13 06:43:13;;;;;;;12.55;9.32;;;16.20;99.90;;;;;;7375720;19;20309;-87
2023/05/13 06:45:47;;;;;;;21.60;16.23;;;16.30;99.90;;;;;;7374281;19;20488;-87
2023/05/13 06:48:24;;;;;;;12.65;9.77;;;16.40;99.90;;;;;;7355536;19;20019;-88
2023/05/13 06:50:51;;;;;;;21.10;18.70;;;16.60;99.90;;;;;;7364345;19;20014;-86
2023/05/13 06:57:11;;;;;;;24.33;17.58;;;16.60;99.90;;;;;;7371105;19;20644;-88
2023/05/13 06:59:51;;;;;;;13.45;11.13;;;16.90;99.90;;;;;;7367157;19;20018;-85
2023/05/13 07:03:21;;;;;;;14.63;11.55;;;17.10;99.90;;;;;;7371814;19;20042;-88
2023/05/13 07:09:42;;;;;;;17.88;15.50;;;17.50;99.90;;;;;;7371076;19;20019;-88
2023/05/13 07:12:13;;;;;;;11.10;9.90;;;17.80;99.90;;;;;;7374231;19;20122;-86
2023/05/13 07:14:48;;;;;;;17.13;15.43;;;18.00;99.90;;;;;;7363716;19;20065;-86
2023/05/13 07:17:25;;;;;;;17.67;14.73;;;18.40;99.90;;;;;;7365233;19;20031;-84
2023/05/13 07:20:36;;;;;;;13.52;11.52;;;18.60;99.90;;;;;;7363294;19;20063;-86
2023/05/13 07:23:15;;;;;;;18.17;16.23;;;18.60;99.90;;;;;;7363004;19;20022;-86
2023/05/13 07:25:41;;;;;;;9.95;7.97;;;19.00;99.90;;;;;;7365901;19;20018;-85
2023/05/13 07:28:42;;;;;;;10.82;7.13;;;19.20;99.90;;;;;;7373195;19;20846;-84
2023/05/13 07:31:09;;;;;;;10.13;7.13;;;19.50;99.90;;;;;;7377743;19;20011;-85
2023/05/13 07:33:39;;;;;;;10.68;9.18;;;19.60;99.90;;;;;;7372778;19;20586;-85
2023/05/13 07:36:06;;;;;;;12.18;7.18;;;19.70;99.90;;;;;;7377264;19;20017;-85
2023/05/13 07:42:18;;;;;;;10.30;7.68;;;20.00;99.90;;;;;;7372534;19;20378;-88
2023/05/13 07:44:53;;;;;;;17.48;13.43;;;20.40;99.90;;;;;;7371625;19;20860;-86
2023/05/13 07:47:32;;;;;;;9.43;7.13;;;20.80;99.90;;;;;;7368082;19;20048;-85
2023/05/13 07:50:08;;;;;;;12.52;10.73;;;20.80;99.90;;;;;;7373675;19;20021;-85
2023/05/13 07:52:38;;;;;;;10.43;6.53;;;20.90;99.90;;;;;;7374253;19;20015;-85
2023/05/13 07:55:04;;;;;;;7.43;6.40;;;21.20;97.60;;;;;;7375171;19;20046;-85
2023/05/13 07:57:31;;;;;;;9.32;6.20;;;21.40;95.00;;;;;;7366824;19;20113;-85
2023/05/13 08:00:25;;;;;;;7.72;6.30;;;21.50;87.10;;;;;;7364242;19;20006;-84
2023/05/13 08:03:11;;;;;;;11.15;7.20;;;21.80;82.70;;;;;;7367044;19;20025;-86
2023/05/13 08:05:46;;;;;;;10.95;8.15;;;21.90;75.70;;;;;;7367018;19;20014;-85
2023/05/13 08:13:37;;;;;;;10.52;7.85;;;21.90;71.50;;;;;;7365300;19;20338;-86
2023/05/13 08:16:17;;;;;;;14.25;12.38;;;22.00;74.20;;;;;;7367688;19;20791;-86
2023/05/13 08:18:50;;;;;;;16.83;14.63;;;22.30;75.20;;;;;;7373498;19;20018;-86
2023/05/13 08:21:25;;;;;;;13.27;11.52;;;22.20;73.10;;;;;;7373167;19;20383;-86
2023/05/13 08:24:11;;;;;;;25.02;22.60;;;22.50;72.80;;;;;;7375758;19;20797;-86
2023/05/13 08:26:52;;;;;;;22.23;19.90;;;22.60;72.40;;;;;;7376193;19;20022;-87
2023/05/13 08:29:28;;;;;;;19.60;17.70;;;22.80;71.40;;;;;;7374849;19;20093;-87
2023/05/13 08:32:21;;;;;;;;;;;23.40;70.70;;;;;;7368530;19;20590;-87
2023/05/13 08:35:14;;;;;;;14.35;10.90;;;23.40;65.20;;;;;;7374970;19;19926;-86
2023/05/13 08:37:52;;;;;;;20.55;18.48;;;23.20;64.20;;;;;;7364091;19;20539;-86
2023/05/13 08:40:20;;;;;;;12.60;10.90;;;23.40;66.10;;;;;;7363810;19;20431;-86
2023/05/13 08:42:49;;;;;;;10.63;8.90;;;23.40;64.10;;;;;;7363667;19;20483;-86
2023/05/13 08:45:21;;;;;;;13.82;12.43;;;23.80;63.20;;;;;;7364646;19;20014;-87
2023/05/13 08:48:00;;;;;;;7.10;4.97;;;24.00;61.20;;;;;;7361060;19;20029;-87
2023/05/13 08:50:35;;;;;;;16.95;9.70;;;24.10;60.50;;;;;;7363035;19;20037;-86
2023/05/13 08:53:02;;;;;;;7.65;6.25;;;24.20;61.60;;;;;;7363913;19;20032;-86
2023/05/13 08:55:29;;;;;;;8.77;6.70;;;24.20;59.90;;;;;;7365767;19;20026;-86
2023/05/13 08:57:55;;;;;;;14.38;9.25;;;24.50;59.10;;;;;;7362738;19;20049;-86
2023/05/13 09:00:22;;;;;;;10.68;8.77;;;24.60;59.80;;;;;;7366102;19;20026;-86
2023/05/13 09:02:51;;;;;;;9.40;5.40;;;24.60;59.70;;;;;;7366396;19;20018;-86
2023/05/13 09:05:18;;;;;;;9.27;5.57;;;25.20;58.10;;;;;;7365106;19;20022;-86
2023/05/13 09:07:45;;;;;;;7.43;6.13;;;24.80;58.70;;;;;;7358618;19;20018;-86
2023/05/13 09:10:11;;;;;;;9.15;6.70;;;25.10;58.40;;;;;;7359721;19;20030;-86
2023/05/13 09:12:54;;;;;;;11.07;8.23;;;25.50;57.90;;;;;;7363048;19;20022;-86
2023/05/13 09:15:24;;;;;;;6.85;4.22;;;25.50;56.60;;;;;;7361678;19;20026;-85
2023/05/13 09:17:59;;;;;;;8.68;6.72;;;25.70;57.10;;;;;;7371351;19;20010;-85
2023/05/13 09:20:27;;;;;;;13.32;9.80;;;25.90;57.00;;;;;;7372199;19;20046;-86
2023/05/13 09:23:09;;;;;;;10.68;6.53;;;26.10;54.00;;;;;;7371347;19;20022;-86
2023/05/13 09:25:42;;;;;;;10.88;9.07;;;26.20;51.70;;;;;;7366739;19;20026;-87
2023/05/13 09:28:13;;;;;;;10.93;7.20;;;26.10;52.30;;;;;;7368112;19;20018;-86
2023/05/13 09:30:44;;;;;;;30.70;27.75;;;26.30;51.40;;;;;;7369448;19;20014;-87
2023/05/13 09:33:21;;;;;;;11.43;7.95;;;26.00;51.30;;;;;;7378185;19;20014;-87
2023/05/13 09:35:53;;;;;;;18.75;16.15;;;26.00;49.60;;;;;;7381766;19;20018;-87
2023/05/13 09:39:00;;;;;;;12.07;10.80;;;26.40;51.10;;;;;;7378530;19;20019;-86
2023/05/13 10:14:43;;;;;;;8.07;3.92;;;27.90;44.00;;;;;;7404590;19;20367;-63
2023/05/13 10:17:11;;;;;;;10.63;7.18;;;27.70;43.90;;;;;;7403737;19;20365;-60
2023/05/13 10:19:43;;;;;;;12.38;11.18;;;27.90;44.40;;;;;;7402306;19;20022;-60
2023/05/13 10:22:10;;;;;;;10.60;5.40;;;28.50;45.40;;;;;;7401456;19;20022;-60
2023/05/13 10:24:38;;;;;;;11.40;9.05;;;28.50;44.50;;;;;;7402015;19;20382;-60
2023/05/13 10:27:06;;;;;;;14.50;10.98;;;28.40;43.70;;;;;;7405669;19;20010;-61
2023/05/13 10:29:36;;;;;;;23.52;21.17;;;28.70;44.40;;;;;;7395874;19;20022;-61
2023/05/13 10:32:09;;;;;;;10.52;8.00;;;28.70;44.10;;;;;;7398984;19;20022;-60
2023/05/13 10:34:38;;;;;;;9.60;6.75;;;28.50;43.00;;;;;;7400832;19;20075;-60
2023/05/13 10:37:50;;;;;;;10.40;8.50;;;28.70;43.00;;;;;;7408502;19;20049;-60
2023/05/13 10:40:51;;;;;;;15.32;12.30;;;28.70;40.80;;;;;;7405603;19;20014;-60
2023/05/13 10:43:19;;;;;;;7.65;3.40;;;28.30;39.00;;;;;;7405435;19;20022;-60
2023/05/13 10:45:51;;;;;;;8.65;2.92;;;28.90;41.00;;;;;;7409557;19;20477;-61
2023/05/13 10:48:21;;;;;;;9.05;5.50;;;28.50;40.60;;;;;;7405637;19;20775;-60
2023/05/13 10:50:54;;;;;;;10.20;9.18;;;28.60;40.50;;;;;;7404643;19;20509;-60
2023/05/13 10:53:30;;;;;;;8.55;5.00;;;28.30;40.60;;;;;;7406521;19;20018;-60
2023/05/13 10:55:59;;;;;;;11.18;6.97;;;28.50;40.80;;;;;;7405087;19;20458;-60
2023/05/13 10:58:33;;;;;;;11.18;7.45;;;28.30;40.80;;;;;;7405443;19;20031;-66
2023/05/13 11:01:24;;;;;;;6.95;6.25;;;28.50;40.70;;;;;;7396258;19;20047;-66
2023/05/13 11:03:55;;;;;;;8.55;6.55;;;27.80;39.80;;;;;;7401992;19;20018;-66
2023/05/13 11:06:43;;;;;;;8.48;3.28;;;28.50;41.50;;;;;;7408353;19;20025;-66
2023/05/13 11:09:19;;;;;;;10.68;8.48;;;28.40;39.70;;;;;;7408422;19;20756;-69
2023/05/13 11:11:58;;;;;;;19.00;16.48;;;28.60;40.90;;;;;;7405766;19;20615;-68
2023/05/13 11:14:26;;;;;;;14.52;11.50;;;28.80;40.60;;;;;;7406438;19;20018;-62
2023/05/13 11:17:03;;;;;;;9.60;7.30;;;28.70;41.80;;;;;;7407655;19;20033;-61
2023/05/13 11:19:32;;;;;;;6.93;4.95;;;28.80;41.60;;;;;;7406220;19;20611;-62
2023/05/13 11:22:16;;;;;;;9.88;5.93;;;28.90;40.70;;;;;;7409949;19;20492;-62
2023/05/13 11:25:05;;;;;;;11.52;4.18;;;28.90;37.70;;;;;;7393959;19;20022;-63
2023/05/13 11:27:40;;;;;;;11.50;9.73;;;29.10;38.50;;;;;;7379447;19;20010;-62
2023/05/13 11:30:19;;;;;;;7.43;4.20;;;29.10;40.90;;;;;;7376810;19;20083;-63
2023/05/13 11:32:54;;;;;;;7.30;3.60;;;28.80;40.90;;;;;;7372501;19;20019;-63
2023/05/13 11:35:26;;;;;;;8.02;3.17;;;28.80;40.30;;;;;;7370120;19;20018;-63
2023/05/13 11:37:57;;;;;;;7.38;3.30;;;29.00;40.40;;;;;;7367514;19;20111;-63
2023/05/13 11:40:29;;;;;;;8.05;5.88;;;28.90;39.80;;;;;;7377531;19;20010;-63
2023/05/13 11:42:56;;;;;;;14.52;11.93;;;28.90;38.00;;;;;;7379778;19;20028;-64
2023/05/13 11:45:24;;;;;;;13.23;10.50;;;29.10;39.20;;;;;;7376185;19;20018;-63
2023/05/13 11:47:52;;;;;;;19.30;17.33;;;29.30;40.40;;;;;;7378650;19;20018;-61
2023/05/13 11:50:21;;;;;;;10.25;3.28;;;29.00;40.60;;;;;;7379136;19;20033;-63
2023/05/13 11:52:55;;;;;;;7.55;5.00;;;28.80;40.90;;;;;;7374153;19;20018;-63
2023/05/13 11:55:25;;;;;;;8.75;4.95;;;28.50;40.70;;;;;;7376729;19;20110;-63
2023/05/13 11:57:51;;;;;;;13.35;7.15;;;27.90;40.80;;;;;;7376710;19;20273;-66
2023/05/13 12:00:41;;;;;;;5.20;2.95;;;28.20;39.80;;;;;;7377752;19;20022;-65
2023/05/13 12:03:10;;;;;;;7.65;5.20;;;28.20;38.60;;;;;;7375311;19;20637;-66
2023/05/13 12:05:39;;;;;;;22.77;17.38;;;28.60;39.10;;;;;;7379007;19;20037;-69
2023/05/13 12:08:08;;;;;;;30.05;27.08;;;28.90;39.90;;;;;;7373525;19;20094;-68
2023/05/13 12:10:44;;;;;;;8.77;7.70;;;29.00;39.50;;;;;;7363839;19;20782;-68
2023/05/13 12:13:11;;;;;;;19.42;17.48;;;29.20;38.60;;;;;;7374411;19;20030;-73
2023/05/13 12:15:37;;;;;;;12.13;7.90;;;29.10;39.80;;;;;;7373338;19;20563;-66
2023/05/13 12:18:05;;;;;;;9.90;7.72;;;29.70;40.40;;;;;;7372835;19;20486;-68
2023/05/13 12:20:32;;;;;;;8.82;5.47;;;29.60;38.30;;;;;;7377407;19;20010;-68
2023/05/13 12:23:03;;;;;;;9.40;4.20;;;29.70;37.80;;;;;;7374796;19;20526;-69
2023/05/13 12:25:45;;;;;;;8.90;5.55;;;30.00;39.60;;;;;;7374832;19;20018;-68
2023/05/13 12:28:19;;;;;;;6.25;4.03;;;29.90;39.10;;;;;;7375661;19;20487;-70
2023/05/13 12:31:00;;;;;;;6.97;4.57;;;29.00;38.30;;;;;;7373752;19;20027;-72
2023/05/13 12:33:42;;;;;;;8.27;3.33;;;29.10;40.10;;;;;;7375847;19;20025;-69
2023/05/13 12:36:27;;;;;;;20.55;18.48;;;29.10;39.70;;;;;;7373325;19;20046;-67
2023/05/13 12:38:56;;;;;;;21.02;18.95;;;29.70;40.60;;;;;;7366124;19;20042;-66
2023/05/13 12:41:30;;;;;;;9.32;6.50;;;29.90;39.10;;;;;;7368863;19;20010;-66
2023/05/13 12:44:00;;;;;;;3.88;2.80;;;29.80;38.20;;;;;;7376213;19;20458;-69
2023/05/13 12:46:27;;;;;;;7.95;2.92;;;28.80;38.90;;;;;;7371147;19;20014;-68
2023/05/13 12:48:58;;;;;;;6.60;3.03;;;28.30;39.40;;;;;;7365593;19;20477;-69
2023/05/13 12:51:28;;;;;;;6.40;2.80;;;28.10;39.60;;;;;;7371153;19;20020;-68
2023/05/13 12:53:56;;;;;;;6.57;2.90;;;28.40;39.10;;;;;;7367580;19;20488;-68
2023/05/13 12:56:25;;;;;;;10.18;3.75;;;28.90;39.10;;;;;;7372293;19;20402;-68
2023/05/13 12:58:53;;;;;;;6.40;2.90;;;29.50;38.70;;;;;;7366349;19;20520;-68
2023/05/13 13:01:19;;;;;;;5.00;2.50;;;29.00;38.40;;;;;;7369209;19;20057;-69
2023/05/13 13:03:49;;;;;;;9.15;2.88;;;29.10;37.70;;;;;;7368732;19;20023;-68
2023/05/13 13:06:15;;;;;;;7.50;2.85;;;28.70;37.70;;;;;;7371665;19;20029;-69
2023/05/13 13:08:47;;;;;;;5.43;2.35;;;28.90;37.10;;;;;;7359789;19;20484;-68
2023/05/13 13:11:17;;;;;;;6.30;3.22;;;28.80;37.30;;;;;;7357069;19;20046;-64
2023/05/13 13:13:47;;;;;;;5.18;2.92;;;28.20;37.20;;;;;;7366865;19;20018;-69
2023/05/13 13:16:13;;;;;;;7.55;2.72;;;28.60;37.20;;;;;;7364181;19;20090;-64
2023/05/13 13:18:41;;;;;;;5.35;3.00;;;29.00;35.80;;;;;;7367608;19;20502;-64
2023/05/13 13:21:11;;;;;;;6.63;2.67;;;29.30;36.10;;;;;;7367067;19;20458;-68
2023/05/13 13:23:37;;;;;;;6.40;2.85;;;29.10;37.60;;;;;;7370228;19;20026;-69
2023/05/13 13:26:04;;;;;;;5.22;2.40;;;28.40;37.90;;;;;;7368587;19;20535;-68
2023/05/13 13:28:30;;;;;;;5.97;2.50;;;27.30;37.90;;;;;;7372155;19;20553;-69
2023/05/13 13:30:58;;;;;;;6.35;2.92;;;27.00;38.50;;;;;;7368831;19;20033;-64
2023/05/13 13:33:24;;;;;;;6.75;3.05;;;26.70;39.50;;;;;;7365169;19;20019;-64
2023/05/13 13:35:50;;;;;;;4.32;2.60;;;27.70;40.00;;;;;;7367247;19;20025;-64
2023/05/13 13:38:17;;;;;;;5.70;2.50;;;28.50;39.30;;;;;;7361394;19;20077;-64
2023/05/13 13:40:43;;;;;;;6.68;2.80;;;28.70;37.90;;;;;;7357755;19;20514;-64
2023/05/13 13:43:12;;;;;;;12.32;3.10;;;28.00;38.30;;;;;;7363533;19;20125;-66
2023/05/13 13:45:39;;;;;;;6.88;3.97;;;27.30;38.40;;;;;;7367359;19;20031;-61
2023/05/13 13:48:05;;;;;;;5.57;2.97;;;27.00;39.90;;;;;;7370022;19;20026;-66
2023/05/13 13:50:32;;;;;;;10.23;8.32;;;27.00;40.90;;;;;;7371009;19;20113;-62
2023/05/13 13:52:58;;;;;;;45.40;41.28;;;27.80;40.10;;;;;;7367575;19;20584;-62
2023/05/13 13:55:27;;;;;;;16.10;14.40;;;28.80;39.10;;;;;;7373138;19;20405;-61
2023/05/13 13:57:53;;;;;;;13.00;10.98;;;29.70;38.00;;;;;;7371332;19;20014;-63
2023/05/13 14:00:23;;;;;;;8.18;3.90;;;30.20;37.00;;;;;;7374299;19;20368;-63
2023/05/13 14:02:49;;;;;;;14.07;7.35;;;30.80;36.70;;;;;;7372374;19;20030;-63
2023/05/13 14:05:15;;;;;;;10.65;7.05;;;31.00;36.10;;;;;;7373764;19;20025;-66
2023/05/13 14:07:42;;;;;;;6.57;3.85;;;31.20;36.10;;;;;;7373715;19;20097;-64
2023/05/13 14:10:09;;;;;;;6.35;3.22;;;31.30;36.10;;;;;;7372120;19;21339;-64
2023/05/13 14:12:35;;;;;;;8.18;4.50;;;31.10;34.80;;;;;;7369068;19;20018;-64
2023/05/13 14:15:01;;;;;;;8.65;4.18;;;31.50;35.70;;;;;;7366485;19;20018;-63
2023/05/13 14:17:28;;;;;;;6.68;3.13;;;30.80;35.30;;;;;;7363065;19;20022;-61
2023/05/13 14:19:57;;;;;;;13.88;4.75;;;30.70;35.60;;;;;;7366421;19;20494;-62
2023/05/13 14:22:24;;;;;;;6.28;3.00;;;30.60;36.40;;;;;;7371087;19;20550;-61
2023/05/13 14:24:53;;;;;;;7.47;3.25;;;30.70;36.00;;;;;;7372632;19;20082;-65
2023/05/13 14:27:23;;;;;;;4.57;2.35;;;30.60;35.70;;;;;;7369050;19;20022;-62
2023/05/13 14:29:49;;;;;;;7.68;3.10;;;30.80;36.40;;;;;;7372016;19;20433;-61
2023/05/13 14:32:16;;;;;;;5.57;2.47;;;30.60;35.60;;;;;;7373513;19;20082;-61
2023/05/13 14:34:42;;;;;;;8.02;4.60;;;30.40;34.90;;;;;;7367906;19;20639;-60
2023/05/13 14:37:08;;;;;;;15.77;12.90;;;30.70;35.60;;;;;;7372880;19;20022;-61
2023/05/13 14:39:35;;;;;;;14.98;13.40;;;30.90;34.20;;;;;;7365677;19;20026;-61
2023/05/13 14:42:01;;;;;;;13.02;10.68;;;31.00;33.60;;;;;;7367860;19;20578;-61
2023/05/13 14:44:27;;;;;;;10.98;7.32;;;30.90;33.00;;;;;;7366542;19;20033;-61
2023/05/13 14:46:54;;;;;;;6.10;3.97;;;30.80;33.70;;;;;;7361167;19;20019;-61
2023/05/13 14:49:24;;;;;;;9.07;3.92;;;30.30;34.10;;;;;;7366604;19;20022;-61
2023/05/13 14:51:50;;;;;;;7.75;4.18;;;30.40;35.20;;;;;;7372420;19;20744;-65
2023/05/13 14:54:17;;;;;;;7.00;3.55;;;30.50;35.30;;;;;;7368113;19;20133;-63
2023/05/13 14:56:43;;;;;;;15.93;11.73;;;30.50;35.70;;;;;;7370997;19;20018;-63